Time;durP1;ratioP1;P1;durP2;ratioP2;P2;SDS_P1;SDS_P2;PMS_P1;PMS_P2;Temp;Humidity;BMP_temperature;BMP_pressure;BME280_temperature;BME280_humidity;BME280_pressure;Samples;Min_cycle;Max_cycle;Signal;HPM_P1;HPM_P2
2023/11/29 00:00:07;;;;;;;6.60;6.10;;;-3.50;99.90;;;;;;6170143;23;20173;-81
2023/11/29 00:02:34;;;;;;;3.95;3.67;;;-3.70;99.90;;;;;;6183187;23;20177;-82
2023/11/29 00:05:06;;;;;;;4.65;4.30;;;-3.50;99.90;;;;;;6182840;23;20181;-86
2023/11/29 00:07:34;;;;;;;6.53;5.93;;;-3.50;99.90;;;;;;6181418;23;20169;-84
2023/11/29 00:10:03;;;;;;;7.38;6.78;;;-3.50;99.90;;;;;;6173722;23;20201;-81
2023/11/29 00:12:30;;;;;;;9.02;4.38;;;-3.60;99.90;;;;;;6164385;23;20193;-81
2023/11/29 00:14:57;;;;;;;7.25;6.75;;;-3.60;99.90;;;;;;6163922;23;20236;-88
2023/11/29 00:17:28;;;;;;;10.07;8.40;;;-3.60;99.90;;;;;;6164845;23;20178;-82
2023/11/29 00:19:56;;;;;;;4.10;3.85;;;-3.60;99.90;;;;;;6163137;23;20350;-84
2023/11/29 00:22:23;;;;;;;11.35;8.23;;;-3.50;99.90;;;;;;6164266;23;20173;-81
2023/11/29 00:24:50;;;;;;;4.93;4.15;;;-3.40;99.90;;;;;;6167151;23;20366;-82
2023/11/29 00:27:17;;;;;;;7.18;6.47;;;-3.60;99.90;;;;;;6166949;23;20180;-82
2023/11/29 00:29:45;;;;;;;4.70;4.50;;;-3.70;99.90;;;;;;6164999;23;20509;-83
2023/11/29 00:32:12;;;;;;;3.45;3.25;;;-3.70;99.90;;;;;;6166030;23;20173;-83
2023/11/29 00:34:39;;;;;;;12.48;9.13;;;-3.60;99.90;;;;;;6164556;23;20235;-81
2023/11/29 00:37:07;;;;;;;4.97;4.63;;;-3.70;99.90;;;;;;6168110;23;20200;-82
2023/11/29 00:39:34;;;;;;;4.20;3.47;;;-3.70;99.90;;;;;;6164362;23;20405;-83
2023/11/29 00:42:02;;;;;;;3.95;2.72;;;-3.70;99.90;;;;;;6165272;23;20241;-84
2023/11/29 00:44:29;;;;;;;6.13;5.75;;;-3.80;99.90;;;;;;6164849;23;20221;-84
2023/11/29 00:46:56;;;;;;;5.45;5.15;;;-3.80;99.90;;;;;;6164803;23;20430;-87
2023/11/29 00:49:23;;;;;;;4.10;3.90;;;-3.80;99.90;;;;;;6140396;23;20193;-81
2023/11/29 00:51:50;;;;;;;5.57;4.47;;;-3.80;99.90;;;;;;6163544;23;20174;-84
2023/11/29 00:54:17;;;;;;;9.90;9.00;;;-3.90;99.90;;;;;;6165139;23;20173;-83
2023/11/29 00:56:45;;;;;;;4.13;3.55;;;-4.00;99.90;;;;;;6166128;23;20173;-83
2023/11/29 00:59:12;;;;;;;3.60;3.40;;;-4.20;99.90;;;;;;6165431;23;20178;-84
2023/11/29 01:01:40;;;;;;;6.35;5.72;;;-4.20;99.90;;;;;;6164832;23;20185;-82
2023/11/29 01:04:07;;;;;;;7.07;4.47;;;-4.30;99.90;;;;;;6164782;23;20414;-83
2023/11/29 01:06:34;;;;;;;6.75;6.22;;;-4.30;99.90;;;;;;6165240;23;20195;-81
2023/11/29 01:09:03;;;;;;;4.68;4.28;;;-4.30;99.90;;;;;;6164444;23;20217;-82
2023/11/29 01:11:31;;;;;;;3.63;3.38;;;-4.10;99.90;;;;;;6167224;23;20174;-82
2023/11/29 01:13:58;;;;;;;13.40;3.80;;;-4.10;99.90;;;;;;6168820;23;20406;-82
2023/11/29 01:16:25;;;;;;;4.57;4.20;;;-4.10;99.90;;;;;;6178403;23;20186;-84
2023/11/29 01:18:52;;;;;;;4.22;3.85;;;-4.10;99.90;;;;;;6181414;23;20201;-81
2023/11/29 01:21:19;;;;;;;6.47;4.53;;;-4.10;99.90;;;;;;6179501;23;20169;-83
2023/11/29 01:23:57;;;;;;;8.25;5.35;;;-4.20;99.90;;;;;;6175889;23;20189;-81
2023/11/29 01:26:24;;;;;;;4.15;3.80;;;-4.10;99.90;;;;;;6167198;23;20182;-82
2023/11/29 01:28:52;;;;;;;6.10;5.60;;;-4.10;99.90;;;;;;6166315;23;20201;-83
2023/11/29 01:31:19;;;;;;;6.50;6.13;;;-4.20;99.90;;;;;;6166097;23;20197;-82
2023/11/29 01:33:46;;;;;;;6.80;6.22;;;-4.10;99.90;;;;;;6165772;23;20471;-84
2023/11/29 01:36:13;;;;;;;8.45;5.70;;;-4.00;99.90;;;;;;6166202;23;20174;-81
2023/11/29 01:38:40;;;;;;;2.38;2.28;;;-4.00;99.90;;;;;;6165862;23;20478;-83
2023/11/29 01:41:07;;;;;;;8.38;7.78;;;-4.00;99.90;;;;;;6166226;23;20398;-79
2023/11/29 01:43:34;;;;;;;6.55;3.65;;;-4.00;99.90;;;;;;6165839;23;20173;-80
2023/11/29 01:46:02;;;;;;;4.10;2.90;;;-3.90;99.90;;;;;;6165839;23;20205;-82
2023/11/29 01:48:30;;;;;;;4.75;3.60;;;-3.70;99.90;;;;;;6164967;23;20178;-82
2023/11/29 01:50:58;;;;;;;3.97;3.67;;;-3.90;99.90;;;;;;6165586;23;20229;-85
2023/11/29 01:53:29;;;;;;;3.60;2.55;;;-3.90;99.90;;;;;;6165832;23;20598;-84
2023/11/29 01:55:57;;;;;;;3.33;2.78;;;-3.90;99.90;;;;;;6166136;23;20162;-82
2023/11/29 01:58:26;;;;;;;0.93;0.93;;;-3.80;99.90;;;;;;6164930;23;20181;-80
2023/11/29 02:00:55;;;;;;;8.75;4.63;;;-3.70;99.90;;;;;;6165657;23;20208;-81
2023/11/29 02:03:22;;;;;;;4.10;3.45;;;-3.90;99.90;;;;;;6166324;23;20201;-82
2023/11/29 02:05:50;;;;;;;4.68;3.58;;;-4.00;99.90;;;;;;6166420;23;20530;-82
2023/11/29 02:08:18;;;;;;;2.25;2.15;;;-3.90;99.90;;;;;;6178082;23;20178;-83
2023/11/29 02:10:46;;;;;;;5.28;4.00;;;-3.90;99.90;;;;;;6179976;23;20174;-87
2023/11/29 02:13:14;;;;;;;3.72;3.53;;;-3.90;99.90;;;;;;6174681;23;20270;-81
2023/11/29 02:15:41;;;;;;;3.25;2.65;;;-3.90;99.90;;;;;;6167647;23;20204;-82
2023/11/29 02:18:08;;;;;;;7.43;5.45;;;-3.90;99.90;;;;;;6170328;23;20178;-79
2023/11/29 02:20:35;;;;;;;5.65;3.45;;;-3.70;99.90;;;;;;6173644;23;20173;-84
2023/11/29 02:23:13;;;;;;;3.88;3.70;;;-3.80;99.90;;;;;;6168873;23;20173;-81
2023/11/29 02:25:41;;;;;;;2.80;2.70;;;-3.80;99.90;;;;;;6170962;23;20170;-88
2023/11/29 02:28:08;;;;;;;1.67;1.67;;;-3.80;99.90;;;;;;6167758;23;20186;-80
2023/11/29 02:30:35;;;;;;;6.13;5.50;;;-3.70;99.90;;;;;;6168992;23;20212;-81
2023/11/29 02:33:02;;;;;;;1.90;1.80;;;-3.70;99.90;;;;;;6168711;23;20365;-81
2023/11/29 02:35:31;;;;;;;3.25;3.05;;;-3.70;99.90;;;;;;6170132;23;20170;-83
2023/11/29 02:37:58;;;;;;;6.40;3.10;;;-3.70;99.90;;;;;;6169100;23;20202;-86
2023/11/29 02:40:25;;;;;;;3.85;3.25;;;-3.70;99.90;;;;;;6174007;23;20509;-89
2023/11/29 02:42:52;;;;;;;7.22;4.00;;;-3.70;99.90;;;;;;6166901;23;20185;-80
2023/11/29 02:45:19;;;;;;;3.70;3.50;;;-3.60;99.90;;;;;;6164877;23;20177;-82
2023/11/29 02:47:46;;;;;;;26.20;4.05;;;-3.60;99.90;;;;;;6165089;23;20185;-85
2023/11/29 02:50:14;;;;;;;2.40;2.28;;;-3.50;99.90;;;;;;6166623;23;20199;-85
2023/11/29 02:52:42;;;;;;;3.78;3.45;;;-3.50;99.90;;;;;;6166071;23;20174;-83
2023/11/29 02:55:09;;;;;;;2.78;2.67;;;-3.50;99.90;;;;;;6166716;23;20181;-84
2023/11/29 02:57:35;;;;;;;2.92;2.78;;;-3.60;99.90;;;;;;6166636;23;20177;-81
2023/11/29 03:00:04;;;;;;;3.63;2.22;;;-3.60;99.90;;;;;;6166428;23;20185;-83
2023/11/29 03:02:31;;;;;;;3.20;2.22;;;-3.60;99.90;;;;;;6173217;23;20173;-84
2023/11/29 03:04:58;;;;;;;8.52;3.70;;;-3.80;99.90;;;;;;6170265;23;20186;-84
2023/11/29 03:07:26;;;;;;;2.15;2.05;;;-3.70;99.90;;;;;;6170013;23;20178;-83
2023/11/29 03:09:52;;;;;;;2.88;2.65;;;-3.70;99.90;;;;;;6171345;23;20226;-87
2023/11/29 03:12:19;;;;;;;1.90;1.60;;;-3.70;99.90;;;;;;6169303;23;20187;-88
2023/11/29 03:14:46;;;;;;;6.05;3.60;;;-3.60;99.90;;;;;;6168214;23;20177;-85
2023/11/29 03:17:14;;;;;;;4.82;4.47;;;-3.70;99.90;;;;;;6167146;23;20173;-87
2023/11/29 03:19:41;;;;;;;2.97;2.72;;;-3.70;99.90;;;;;;6167062;23;20177;-86
2023/11/29 03:22:08;;;;;;;2.35;1.92;;;-3.70;99.90;;;;;;6167066;23;20497;-83
2023/11/29 03:24:35;;;;;;;3.88;2.95;;;-3.70;99.90;;;;;;6169639;23;20178;-81
2023/11/29 03:27:02;;;;;;;1.90;1.80;;;-3.60;99.90;;;;;;6175991;23;20161;-82
2023/11/29 03:29:29;;;;;;;1.95;1.55;;;-3.60;99.90;;;;;;6174730;23;20227;-82
2023/11/29 03:31:56;;;;;;;1.23;1.23;;;-3.60;99.90;;;;;;6164475;23;20174;-85
2023/11/29 03:34:24;;;;;;;2.25;2.15;;;-3.60;99.90;;;;;;6166649;23;20522;-83
2023/11/29 03:36:51;;;;;;;0.90;0.90;;;-3.60;99.90;;;;;;6167292;23;20216;-85
2023/11/29 03:39:18;;;;;;;3.67;2.30;;;-3.50;99.90;;;;;;6169741;23;20234;-85
2023/11/29 03:41:48;;;;;;;3.33;2.17;;;-3.50;99.90;;;;;;6179740;23;20172;-84
2023/11/29 03:44:15;;;;;;;1.63;1.52;;;-3.50;99.90;;;;;;6178751;23;20228;-85
2023/11/29 03:46:42;;;;;;;5.40;2.05;;;-3.50;99.90;;;;;;6176772;23;20500;-86
2023/11/29 03:49:10;;;;;;;3.22;1.50;;;-3.40;99.90;;;;;;6176756;23;20233;-85
2023/11/29 03:51:38;;;;;;;1.00;1.00;;;-3.40;99.90;;;;;;6178169;23;20228;-84
2023/11/29 03:54:12;;;;;;;0.90;0.90;;;-3.50;99.90;;;;;;6167423;23;20165;-81
2023/11/29 03:56:39;;;;;;;1.27;1.25;;;-3.40;99.90;;;;;;6167452;23;20177;-82
2023/11/29 03:59:07;;;;;;;1.38;1.27;;;-3.30;99.90;;;;;;6170986;23;20217;-84
2023/11/29 04:01:37;;;;;;;3.60;3.30;;;-3.30;99.90;;;;;;6176150;23;20177;-86
2023/11/29 04:04:04;;;;;;;1.17;1.17;;;-3.40;99.90;;;;;;6180979;23;20178;-85
2023/11/29 04:06:31;;;;;;;1.80;1.70;;;-3.30;99.90;;;;;;6176104;23;20174;-85
2023/11/29 04:08:59;;;;;;;4.22;2.60;;;-3.30;99.90;;;;;;6167219;23;20173;-86
2023/11/29 04:11:26;;;;;;;4.00;3.80;;;-3.30;99.90;;;;;;6166372;23;20567;-84
2023/11/29 04:13:53;;;;;;;2.83;2.63;;;-3.30;99.90;;;;;;6164729;23;20174;-88
2023/11/29 04:16:25;;;;;;;2.50;2.40;;;-3.30;99.90;;;;;;6166836;23;20193;-86
2023/11/29 04:18:53;;;;;;;3.53;3.22;;;-3.20;99.90;;;;;;6166043;23;20197;-87
2023/11/29 04:21:29;;;;;;;2.35;2.25;;;-3.30;99.90;;;;;;6167797;23;20178;-85
2023/11/29 04:23:56;;;;;;;2.45;2.22;;;-3.30;99.90;;;;;;6167533;23;20458;-85
2023/11/29 04:26:38;;;;;;;1.35;1.25;;;-3.40;99.90;;;;;;6166029;23;20197;-85
2023/11/29 04:29:09;;;;;;;1.45;1.35;;;-3.20;99.90;;;;;;6168913;23;20174;-84
2023/11/29 04:31:39;;;;;;;2.17;2.03;;;-3.20;99.90;;;;;;6166188;23;20181;-85
2023/11/29 04:34:07;;;;;;;1.63;1.63;;;-3.20;99.90;;;;;;6165892;23;20336;-86
2023/11/29 04:36:53;;;;;;;1.75;1.65;;;-3.30;99.90;;;;;;6170189;23;20447;-85
2023/11/29 04:39:20;;;;;;;2.50;1.35;;;-3.30;99.90;;;;;;6182090;23;20165;-82
2023/11/29 04:41:47;;;;;;;1.75;1.65;;;-3.30;99.90;;;;;;6182628;23;20237;-83
2023/11/29 04:44:16;;;;;;;0.50;0.50;;;-3.30;99.90;;;;;;6181656;23;20209;-87
2023/11/29 04:46:44;;;;;;;1.83;1.73;;;-3.30;99.90;;;;;;6177162;23;20446;-85
2023/11/29 04:49:11;;;;;;;2.40;2.20;;;-3.30;99.90;;;;;;6170348;23;20178;-87
2023/11/29 04:51:38;;;;;;;1.90;1.80;;;-3.20;99.90;;;;;;6176331;23;20162;-85
2023/11/29 04:54:06;;;;;;;2.30;2.20;;;-3.20;99.90;;;;;;6166876;23;20180;-85
2023/11/29 04:56:33;;;;;;;1.95;1.85;;;-3.30;99.90;;;;;;6175423;23;20182;-84
2023/11/29 04:59:00;;;;;;;0.57;0.57;;;-3.30;99.90;;;;;;6164300;23;20181;-86
2023/11/29 05:01:27;;;;;;;1.60;1.50;;;-3.30;99.90;;;;;;6165293;23;20419;-85
2023/11/29 05:03:54;;;;;;;1.92;1.83;;;-3.20;99.90;;;;;;6164996;23;20189;-84
2023/11/29 05:06:22;;;;;;;3.40;3.13;;;-3.20;99.90;;;;;;6165093;23;20165;-85
2023/11/29 05:08:49;;;;;;;1.30;1.30;;;-3.20;99.90;;;;;;6165135;23;20554;-85
2023/11/29 05:11:16;;;;;;;1.75;1.67;;;-3.30;99.90;;;;;;6165333;23;20193;-83
2023/11/29 05:13:44;;;;;;;5.20;4.78;;;-3.50;99.90;;;;;;6165054;23;20490;-83
2023/11/29 05:16:10;;;;;;;3.42;2.80;;;-3.60;99.90;;;;;;6164616;23;20240;-83
2023/11/29 05:18:38;;;;;;;1.55;1.45;;;-3.50;99.90;;;;;;6165248;23;20174;-84
2023/11/29 05:21:06;;;;;;;1.60;1.50;;;-3.50;99.90;;;;;;6164599;23;20177;-86
2023/11/29 05:23:33;;;;;;;3.95;1.90;;;-3.50;99.90;;;;;;6165083;23;20173;-86
2023/11/29 05:26:00;;;;;;;2.25;1.70;;;-3.50;99.90;;;;;;6164436;23;20213;-86
2023/11/29 05:28:32;;;;;;;1.42;1.38;;;-3.50;99.90;;;;;;6166409;23;20571;-87
2023/11/29 05:31:00;;;;;;;2.05;1.95;;;-3.50;99.90;;;;;;6165383;23;20217;-83
2023/11/29 05:33:28;;;;;;;0.80;0.80;;;-3.60;99.90;;;;;;6166601;23;20232;-83
2023/11/29 05:35:56;;;;;;;1.10;1.10;;;-3.80;99.90;;;;;;6165372;23;20343;-83
2023/11/29 05:38:24;;;;;;;3.08;2.75;;;-3.90;99.90;;;;;;6167240;23;20236;-85
2023/11/29 05:40:50;;;;;;;3.22;3.05;;;-3.90;99.90;;;;;;6170568;23;20204;-84
2023/11/29 05:43:18;;;;;;;1.08;1.08;;;-4.10;99.90;;;;;;6169759;23;20333;-86
2023/11/29 05:45:45;;;;;;;2.45;2.35;;;-4.20;99.90;;;;;;6179229;23;20170;-86
2023/11/29 05:48:12;;;;;;;3.20;2.28;;;-4.40;99.90;;;;;;6178367;23;20357;-85
2023/11/29 05:50:39;;;;;;;1.75;1.65;;;-4.50;99.90;;;;;;6176797;23;20205;-86
2023/11/29 05:53:07;;;;;;;2.70;2.35;;;-4.60;99.90;;;;;;6153112;23;20176;-87
2023/11/29 05:55:34;;;;;;;3.40;3.20;;;-4.40;99.90;;;;;;6180491;23;20181;-87
2023/11/29 05:58:03;;;;;;;3.63;1.52;;;-4.80;99.90;;;;;;6181911;23;20180;-87
2023/11/29 06:00:31;;;;;;;2.47;2.08;;;-4.80;99.90;;;;;;6183239;23;20173;-86
2023/11/29 06:02:59;;;;;;;3.50;3.25;;;-4.90;99.90;;;;;;6180402;23;20186;-88
2023/11/29 06:05:30;;;;;;;2.22;2.13;;;-4.90;99.90;;;;;;6180641;23;20197;-87
2023/11/29 06:07:57;;;;;;;1.15;1.15;;;-5.00;99.90;;;;;;6181894;23;20169;-86
2023/11/29 06:10:24;;;;;;;1.75;1.67;;;-5.00;99.90;;;;;;6181692;23;20260;-88
2023/11/29 06:12:52;;;;;;;1.77;1.73;;;-5.10;99.90;;;;;;6177874;23;20456;-83
2023/11/29 06:15:19;;;;;;;0.80;0.80;;;-5.20;99.90;;;;;;6181029;23;20169;-85
2023/11/29 06:17:47;;;;;;;3.67;3.47;;;-5.00;99.90;;;;;;6181462;23;20165;-85
2023/11/29 06:20:18;;;;;;;7.03;3.60;;;-4.90;99.90;;;;;;6182962;23;20215;-88
2023/11/29 06:22:46;;;;;;;2.42;2.33;;;-5.00;99.90;;;;;;6185165;23;20294;-85
2023/11/29 06:25:14;;;;;;;2.85;2.47;;;-5.10;99.90;;;;;;6201607;23;20209;-83
2023/11/29 06:27:42;;;;;;;5.10;4.30;;;-5.30;99.90;;;;;;6150015;23;20236;-87
2023/11/29 06:30:09;;;;;;;2.65;2.55;;;-5.20;99.90;;;;;;6178187;23;20188;-86
2023/11/29 06:32:36;;;;;;;4.00;3.65;;;-5.30;99.90;;;;;;6168457;23;20220;-87
2023/11/29 06:35:04;;;;;;;19.45;4.90;;;-5.40;99.90;;;;;;6211103;23;20434;-89
2023/11/29 06:37:33;;;;;;;5.55;5.15;;;-5.60;99.90;;;;;;6210102;23;20168;-87
2023/11/29 06:40:02;;;;;;;6.65;5.70;;;-5.60;99.90;;;;;;6182958;23;20207;-86
2023/11/29 06:42:30;;;;;;;5.35;3.17;;;-5.60;99.90;;;;;;6203947;23;20208;-85
2023/11/29 06:44:57;;;;;;;16.50;4.25;;;-5.60;99.90;;;;;;6203717;23;20174;-87
2023/11/29 06:47:24;;;;;;;4.53;4.22;;;-5.50;99.90;;;;;;6176425;23;20165;-88
2023/11/29 06:49:51;;;;;;;6.18;5.70;;;-5.60;99.90;;;;;;6201672;23;20184;-85
2023/11/29 06:52:18;;;;;;;4.57;4.18;;;-5.70;99.90;;;;;;6181900;23;20224;-87
2023/11/29 06:57:33;;;;;;;11.40;4.50;;;-5.80;99.90;;;;;;6168719;23;20200;-88
2023/11/29 07:00:03;;;;;;;2.85;2.70;;;-5.70;99.90;;;;;;6202980;23;20188;-89
2023/11/29 07:02:30;;;;;;;3.92;3.60;;;-5.60;99.90;;;;;;6187338;23;20181;-84
2023/11/29 07:04:57;;;;;;;5.65;5.15;;;-5.70;99.90;;;;;;6205784;23;20223;-84
2023/11/29 07:07:24;;;;;;;5.88;5.32;;;-5.70;99.90;;;;;;6199278;23;20201;-85
2023/11/29 07:09:52;;;;;;;4.78;4.38;;;-5.70;99.90;;;;;;6206402;23;20232;-86
2023/11/29 07:12:20;;;;;;;3.25;3.03;;;-5.70;99.90;;;;;;6183544;23;20207;-83
2023/11/29 07:14:48;;;;;;;7.35;6.05;;;-5.80;99.90;;;;;;6172834;23;20197;-85
2023/11/29 07:17:16;;;;;;;4.82;4.35;;;-5.80;99.90;;;;;;6199532;23;20168;-85
2023/11/29 07:19:47;;;;;;;14.00;7.95;;;-5.80;99.90;;;;;;6203420;23;20173;-88
2023/11/29 07:27:31;;;;;;;6.68;6.07;;;-5.70;99.90;;;;;;6145566;23;20455;-80
2023/11/29 07:29:59;;;;;;;7.57;6.72;;;-5.70;99.90;;;;;;6145019;23;21351;-86
2023/11/29 07:32:27;;;;;;;4.72;4.32;;;-5.30;99.90;;;;;;6173077;23;20165;-83
2023/11/29 07:34:55;;;;;;;5.80;5.30;;;-5.90;99.90;;;;;;6168471;23;20229;-86
2023/11/29 07:37:22;;;;;;;6.20;5.80;;;-5.90;99.90;;;;;;6143794;23;20188;-89
2023/11/29 07:39:50;;;;;;;7.72;4.90;;;-5.80;99.90;;;;;;6131480;23;20208;-87
2023/11/29 07:42:18;;;;;;;11.15;6.38;;;-5.70;99.90;;;;;;6176493;23;20188;-86
2023/11/29 07:44:45;;;;;;;5.97;3.72;;;-5.60;99.90;;;;;;6196820;23;20192;-86
2023/11/29 07:47:12;;;;;;;5.60;5.20;;;-5.60;99.90;;;;;;6156818;23;20217;-87
2023/11/29 07:49:41;;;;;;;4.10;3.80;;;-5.50;99.90;;;;;;6198346;23;20188;-85
2023/11/29 07:52:11;;;;;;;3.72;3.50;;;-5.50;99.90;;;;;;6201468;23;20659;-85
2023/11/29 07:54:39;;;;;;;9.70;5.25;;;-5.60;99.90;;;;;;6172121;23;20220;-86
2023/11/29 07:57:06;;;;;;;15.82;6.30;;;-5.50;99.90;;;;;;6207190;23;20177;-87
2023/11/29 07:59:33;;;;;;;7.95;6.43;;;-5.40;99.90;;;;;;6213053;23;20169;-87
2023/11/29 08:01:59;;;;;;;11.27;4.28;;;-5.30;99.90;;;;;;6186501;23;20181;-85
2023/11/29 08:07:02;;;;;;;4.05;3.85;;;-5.00;99.90;;;;;;6207143;23;20292;-86
2023/11/29 08:09:30;;;;;;;5.93;4.70;;;-5.00;99.90;;;;;;6132498;23;20306;-88
2023/11/29 08:11:57;;;;;;;7.80;5.55;;;-4.90;99.90;;;;;;6117286;23;20564;-88
2023/11/29 08:19:42;;;;;;;6.38;5.82;;;-4.90;99.90;;;;;;6131630;23;20416;-90
2023/11/29 08:24:51;;;;;;;7.68;6.97;;;-4.70;99.90;;;;;;6137709;23;20228;-87
2023/11/29 08:27:19;;;;;;;7.18;5.53;;;-4.80;99.90;;;;;;6213225;23;20157;-86
2023/11/29 08:35:10;;;;;;;6.93;4.97;;;-4.60;99.90;;;;;;6156298;23;20268;-88
2023/11/29 08:37:37;;;;;;;5.22;3.15;;;-4.70;99.90;;;;;;6135669;23;20327;-91
2023/11/29 08:42:46;;;;;;;9.23;6.93;;;-4.30;99.90;;;;;;6205771;23;20235;-89
2023/11/29 08:45:13;;;;;;;4.95;4.65;;;-4.20;99.90;;;;;;6182314;23;20197;-87
2023/11/29 08:47:40;;;;;;;11.52;10.40;;;-4.30;99.90;;;;;;6203000;23;20473;-88
2023/11/29 08:50:08;;;;;;;4.75;4.50;;;-4.50;99.90;;;;;;6170290;23;20248;-89
2023/11/29 08:55:17;;;;;;;3.47;3.22;;;-4.40;99.90;;;;;;6176141;23;20196;-87
2023/11/29 09:00:26;;;;;;;9.23;8.15;;;-4.30;99.90;;;;;;6136361;23;20215;-89
2023/11/29 09:02:55;;;;;;;36.58;17.00;;;-4.20;99.90;;;;;;6127400;23;20234;-85
2023/11/29 09:08:00;;;;;;;6.63;6.13;;;-4.10;99.90;;;;;;6189288;23;20223;-86
2023/11/29 09:10:39;;;;;;;12.48;8.25;;;-4.00;99.90;;;;;;6147397;23;20286;-89
2023/11/29 09:13:06;;;;;;;9.40;8.45;;;-4.10;99.90;;;;;;6079424;23;20213;-90
2023/11/29 09:20:50;;;;;;;18.85;6.65;;;-4.00;99.90;;;;;;6125305;23;21311;-88
2023/11/29 09:37:00;;;;;;;7.47;5.78;;;-4.00;99.90;;;;;;6194444;23;20263;-88
2023/11/29 09:44:47;;;;;;;8.45;5.75;;;-3.70;99.90;;;;;;6184880;23;20215;-87
2023/11/29 09:47:17;;;;;;;10.65;6.78;;;-4.00;99.90;;;;;;6161828;23;20208;-86
2023/11/29 09:49:48;;;;;;;7.47;6.88;;;-3.90;99.90;;;;;;6214544;23;20153;-85
2023/11/29 09:52:17;;;;;;;6.35;5.85;;;-4.00;99.90;;;;;;6143961;23;20204;-84
2023/11/29 10:00:06;;;;;;;4.18;3.88;;;-3.80;99.90;;;;;;6128203;23;20406;-88
2023/11/29 10:02:33;;;;;;;5.75;5.35;;;-3.70;99.90;;;;;;6193380;23;20220;-86
2023/11/29 10:05:01;;;;;;;13.45;9.90;;;-3.90;99.90;;;;;;6206299;23;20184;-86
2023/11/29 10:07:29;;;;;;;5.35;4.85;;;-3.60;99.90;;;;;;6133606;23;20212;-88
2023/11/29 10:15:10;;;;;;;8.57;6.97;;;-3.50;99.90;;;;;;6127973;23;20194;-86
2023/11/29 10:17:44;;;;;;;4.30;4.00;;;-3.60;99.90;;;;;;6191321;23;20208;-86
2023/11/29 10:20:13;;;;;;;8.85;7.60;;;-3.70;99.90;;;;;;6171274;23;20207;-89
2023/11/29 10:22:41;;;;;;;5.43;5.05;;;-3.60;99.90;;;;;;6178338;23;20185;-85
2023/11/29 10:25:17;;;;;;;11.73;8.25;;;-3.80;99.90;;;;;;6126941;23;20213;-87
2023/11/29 10:30:26;;;;;;;8.23;7.55;;;-3.40;99.90;;;;;;6196614;23;20216;-87
2023/11/29 10:35:37;;;;;;;14.63;9.88;;;-3.30;99.90;;;;;;6141365;23;22022;-84
2023/11/29 10:38:15;;;;;;;16.77;7.68;;;-3.10;99.90;;;;;;6128303;23;20197;-86
2023/11/29 10:40:43;;;;;;;5.05;4.05;;;-3.20;99.90;;;;;;6201383;23;20488;-80
2023/11/29 10:43:13;;;;;;;4.30;4.10;;;-3.20;99.90;;;;;;6192598;23;20173;-80
2023/11/29 10:45:41;;;;;;;5.10;4.78;;;-2.80;99.90;;;;;;6194714;23;20233;-83
2023/11/29 10:48:18;;;;;;;4.70;4.18;;;-3.20;99.90;;;;;;6203243;23;20179;-87
2023/11/29 10:50:47;;;;;;;4.45;3.60;;;-3.20;99.90;;;;;;6177348;23;20181;-86
2023/11/29 10:55:51;;;;;;;2.85;2.65;;;-3.00;99.90;;;;;;6147943;23;20214;-86
2023/11/29 10:58:23;;;;;;;7.05;5.15;;;-3.10;99.90;;;;;;6159752;23;20220;-87
2023/11/29 11:00:50;;;;;;;6.53;4.50;;;-3.10;99.90;;;;;;6200873;23;20208;-85
2023/11/29 11:03:46;;;;;;;3.20;3.00;;;-3.10;99.90;;;;;;6203939;23;20189;-84
2023/11/29 11:06:23;;;;;;;3.63;3.33;;;-3.20;99.90;;;;;;6181035;23;20201;-85
2023/11/29 11:08:52;;;;;;;5.03;4.63;;;-3.20;99.90;;;;;;6213391;23;20224;-85
2023/11/29 11:11:42;;;;;;;7.68;6.88;;;-3.40;99.90;;;;;;6183841;23;20228;-82
2023/11/29 11:14:20;;;;;;;14.18;6.35;;;-3.40;99.90;;;;;;6205386;23;20229;-83
2023/11/29 11:17:10;;;;;;;8.90;7.03;;;-3.30;99.90;;;;;;6208414;23;20188;-85
2023/11/29 11:19:42;;;;;;;11.88;4.35;;;-3.20;99.90;;;;;;6204939;23;20166;-82
2023/11/29 11:22:15;;;;;;;7.43;5.63;;;-3.20;99.90;;;;;;6209701;23;20157;-82
2023/11/29 11:27:32;;;;;;;7.05;6.45;;;-3.00;99.90;;;;;;6283341;22;20205;-83
2023/11/29 11:32:58;;;;;;;4.30;4.00;;;-3.10;99.90;;;;;;6170644;23;20197;-81
2023/11/29 11:38:14;;;;;;;3.35;3.17;;;-3.10;99.90;;;;;;6181550;23;20193;-85
2023/11/29 11:40:41;;;;;;;7.88;7.18;;;-3.10;99.90;;;;;;6192970;23;20257;-82
2023/11/29 11:43:09;;;;;;;3.75;3.55;;;-3.20;99.90;;;;;;6211742;23;20174;-82
2023/11/29 11:45:38;;;;;;;5.25;4.43;;;-3.20;99.90;;;;;;6206773;23;20196;-85
2023/11/29 11:48:06;;;;;;;2.25;2.15;;;-3.20;99.90;;;;;;6201543;23;20224;-82
2023/11/29 11:50:33;;;;;;;6.22;4.15;;;-3.10;99.90;;;;;;6193311;23;20632;-87
2023/11/29 11:53:03;;;;;;;3.08;2.97;;;-3.20;99.90;;;;;;6202900;23;20184;-84
2023/11/29 11:55:31;;;;;;;5.75;4.63;;;-3.20;99.90;;;;;;6199547;23;20563;-81
2023/11/29 11:58:02;;;;;;;4.47;4.10;;;-3.20;99.90;;;;;;6201640;23;20187;-82
2023/11/29 12:00:44;;;;;;;2.50;2.40;;;-3.40;99.90;;;;;;6230484;23;20199;-85
2023/11/29 12:05:46;;;;;;;10.05;6.90;;;-3.60;99.90;;;;;;6258445;23;20209;-84
2023/11/29 12:08:14;;;;;;;6.93;4.40;;;-2.70;99.90;;;;;;6261145;22;20176;-84
2023/11/29 12:10:40;;;;;;;2.78;2.50;;;-3.50;99.90;;;;;;6260022;23;20346;-88
2023/11/29 12:13:07;;;;;;;3.60;3.40;;;-3.70;99.90;;;;;;6259774;23;20171;-85
2023/11/29 12:15:35;;;;;;;3.53;3.20;;;-3.60;99.90;;;;;;6260509;23;20210;-86
2023/11/29 12:18:10;;;;;;;10.93;4.03;;;-3.70;99.90;;;;;;6262681;23;20172;-85
2023/11/29 12:20:37;;;;;;;3.90;3.65;;;-3.70;99.90;;;;;;6259740;23;20167;-88
2023/11/29 12:23:05;;;;;;;3.13;2.67;;;-3.60;99.90;;;;;;6260842;23;20202;-86
2023/11/29 12:25:32;;;;;;;7.20;4.68;;;-3.70;99.90;;;;;;6238889;23;20616;-84
2023/11/29 12:28:02;;;;;;;6.60;5.40;;;-3.70;99.90;;;;;;6266367;22;20179;-88
2023/11/29 12:30:30;;;;;;;5.95;5.43;;;-3.60;99.90;;;;;;6171282;22;20272;-86
2023/11/29 12:32:58;;;;;;;5.90;5.55;;;-3.50;99.90;;;;;;6203946;23;20204;-84
2023/11/29 12:35:26;;;;;;;6.85;6.25;;;-3.60;99.90;;;;;;6206346;23;20207;-86
2023/11/29 12:37:54;;;;;;;2.38;2.22;;;-3.50;99.90;;;;;;6233249;23;20183;-87
2023/11/29 12:40:21;;;;;;;4.05;3.15;;;-3.50;99.90;;;;;;6231009;23;20176;-83
2023/11/29 12:42:48;;;;;;;4.47;4.18;;;-3.50;99.90;;;;;;6193559;23;20197;-83
2023/11/29 12:45:18;;;;;;;4.40;4.20;;;-3.40;99.90;;;;;;6181989;23;20200;-84
2023/11/29 12:48:01;;;;;;;4.60;3.70;;;-3.50;99.90;;;;;;5165198;23;20584;-87
2023/11/29 12:50:28;;;;;;;21.15;5.00;;;-3.50;99.90;;;;;;5139988;27;20193;-85
2023/11/29 12:52:56;;;;;;;3.47;3.28;;;-3.50;99.90;;;;;;5071122;28;20219;-84
2023/11/29 12:55:24;;;;;;;5.00;4.68;;;-3.50;99.90;;;;;;5067032;28;20389;-88
2023/11/29 12:57:51;;;;;;;2.95;2.75;;;-3.40;99.90;;;;;;5142072;27;20203;-86
2023/11/29 13:00:18;;;;;;;5.07;4.75;;;-3.50;99.90;;;;;;5094281;27;20219;-85
2023/11/29 13:05:27;;;;;;;5.03;4.53;;;-3.30;99.90;;;;;;5154337;22;20253;-86
2023/11/29 13:07:54;;;;;;;3.35;3.15;;;-3.30;99.90;;;;;;5100295;28;20246;-84
2023/11/29 13:10:20;;;;;;;6.10;5.25;;;-3.30;99.90;;;;;;5106291;28;20199;-87
2023/11/29 13:12:49;;;;;;;5.18;4.70;;;-3.20;99.90;;;;;;5106063;28;20246;-86
2023/11/29 13:15:18;;;;;;;4.70;4.30;;;-3.20;99.90;;;;;;5481491;22;20266;-83
2023/11/29 13:17:45;;;;;;;4.55;4.25;;;-3.20;99.90;;;;;;5101504;28;20206;-85
2023/11/29 13:20:13;;;;;;;8.07;5.97;;;-3.20;99.90;;;;;;5105637;28;20200;-87
2023/11/29 13:22:41;;;;;;;4.30;3.88;;;-3.10;99.90;;;;;;5103955;28;20210;-85
2023/11/29 13:25:10;;;;;;;10.02;3.47;;;-3.10;99.90;;;;;;5101285;28;20235;-86
2023/11/29 13:27:37;;;;;;;5.18;4.38;;;-3.10;99.90;;;;;;5098299;28;20211;-88
2023/11/29 13:30:06;;;;;;;4.05;3.75;;;-3.10;99.90;;;;;;5094745;28;20199;-86
2023/11/29 13:32:33;;;;;;;6.65;6.07;;;-3.10;99.90;;;;;;5109478;28;20222;-85
2023/11/29 13:35:03;;;;;;;4.93;4.22;;;-3.10;99.90;;;;;;5794946;22;20305;-86
2023/11/29 13:37:31;;;;;;;5.30;5.00;;;-3.10;99.90;;;;;;5656497;22;20257;-86
2023/11/29 13:39:58;;;;;;;6.10;5.60;;;-3.10;99.90;;;;;;5328590;22;20218;-85
2023/11/29 13:42:26;;;;;;;1.70;1.70;;;-3.10;99.90;;;;;;5112081;28;20246;-83
2023/11/29 13:44:54;;;;;;;4.82;4.43;;;-2.90;99.90;;;;;;5110315;28;20219;-84
2023/11/29 13:47:22;;;;;;;3.85;3.55;;;-3.00;99.90;;;;;;5110814;28;20215;-81
2023/11/29 13:49:52;;;;;;;6.22;3.65;;;-3.00;99.90;;;;;;5272399;22;20261;-84
2023/11/29 13:55:07;;;;;;;4.45;4.15;;;-3.00;99.90;;;;;;5506203;22;20240;-85
2023/11/29 13:57:36;;;;;;;5.72;3.90;;;-2.90;99.90;;;;;;5377124;23;20237;-86
2023/11/29 14:00:09;;;;;;;3.40;3.20;;;-2.90;99.90;;;;;;5055443;28;20247;-87
2023/11/29 14:02:36;;;;;;;3.40;3.25;;;-2.90;99.90;;;;;;5048511;28;20193;-87
2023/11/29 14:07:43;;;;;;;5.05;4.75;;;-3.10;99.90;;;;;;5407942;22;20245;-85
2023/11/29 14:10:17;;;;;;;8.40;4.90;;;-3.10;99.90;;;;;;5546533;23;20220;-85
2023/11/29 14:12:44;;;;;;;4.75;4.45;;;-3.00;99.90;;;;;;5080204;28;20203;-82
2023/11/29 14:15:14;;;;;;;1.52;1.42;;;-3.10;99.90;;;;;;5089882;28;20259;-85
2023/11/29 14:17:41;;;;;;;4.85;4.43;;;-3.00;99.90;;;;;;5068676;28;20205;-87
2023/11/29 14:20:12;;;;;;;5.45;4.45;;;-3.10;99.90;;;;;;5365706;22;20232;-85
2023/11/29 14:22:41;;;;;;;2.85;2.65;;;-3.20;99.90;;;;;;5039696;28;20198;-84
2023/11/29 14:27:57;;;;;;;3.58;3.47;;;-3.20;99.90;;;;;;5293159;22;20223;-82
2023/11/29 14:30:26;;;;;;;16.88;4.45;;;-3.20;99.90;;;;;;5943028;22;20613;-86